Terminal Aerodrome Forecast
Issued by NWS Grand Junction, CO

Home | Current Version | Previous Version | Text Only | Print | Product List | Glossary On
Versions: 1 2 3 4 5 6 7 8 9 10 11 12 13 14 15 16 17 18 19 20 21 22 23 24 25 26 27 28 29 30 31 32 33 34 35 36
000
FTUS45 KGJT 251743
TAFGJT
TAF
KGJT 251743Z 2518/2618 13012KT P6SM OVC250
     FM252000 20011KT P6SM BKN120 OVC250
     FM252200 25012KT P6SM VCSH OVC080
      TEMPO 2522/2602 -SHRA
     FM260200 08005G10KT P6SM -SHRA OVC070
     FM261100 34008KT P6SM -SHRA BKN045=

USA.gov is the U.S. government's official web portal to all federal, state and local government web resources and services.